Las Vegas, NV

4:54 AM PDT on August 30, 2015 (GMT -0700)
Revere Golf Club | | Change Station
CLOSE
Current Station
Personal Weather Station
Location: Henderson, NV
Elevation: 2621 ft
Nearby Weather Stations

Elev 2621 ft 35.96 °N, 115.12 °W | Updated 3 minutes ago

Clear
Clear
83.7 °F
Feels Like 81 °F
N
5.0
Wind Variable Wind from NE
Gusts 12.0 mph

Today
High -- | Low -- °F
--% Chance of Precip.
Yesterday
High -- | Low -- °F
Precip. -- in
6:10 AM 7:11 PM
Full, 99% visible
Pressure 29.71 in
Visibility 10.0 miles
Clouds Few 12000 ft
Few 25000 ft
Heat Index 81 °F
Dew Point 46 °F
Humidity 27%
Rainfall 0.00 in
Snow Depth Not available.
UV 0 out of 12
Pollen 7.00 out of 12
Air Quality Not available.
Flu Activity Not available.
METAR KLAS 301056Z 18006KT 10SM FEW120 FEW250 31/05 A2981 RMK AO2 SLP061 T03110050
Pressure 29.71 in
Visibility 10.0 miles
Clouds Few 12000 ft
Few 25000 ft
Heat Index 81 °F
Dew Point 46 °F
Humidity 27%
Rainfall 0.00 in
Snow Depth Not available.
UV 0 out of 12
Pollen 7.00 out of 12
Air Quality Not available.
Flu Activity Not available.
METAR KLAS 301056Z 18006KT 10SM FEW120 FEW250 31/05 A2981 RMK AO2 SLP061 T03110050

10-Day Weather Forecast

×

Almanac

Astronomy

Aug. 30, 2015 Rise Set
Actual Time
Civil Twilight
Nautical Twilight
Astronomical Twilight
Moon
Length of Visible Light
Length of Day
Tomorrow will be .
, % of the Moon is Illuminated

Today's Extremes

State Highs State Lows

Community

WunderPhotos

Upload Photos

1,850,930 photos uploaded!

WunderBlogs® & News

Nearby

Air Quality

  Air Quality AQ Index Pollutant
Not available.

Snow Depth

Station Depth Elevation

Earthquake Activity

City Distance Mag. Time & Date
Minimum magnitude displayed is 2.5.

Coastal Water Temperatures

Place Temperature

Stations

Nearby Weather Stations

Station Location Temp. Windchill Dew Point Humidity Wind Precip. Elev Updated Type